createdAt,value
2022-11-14T00:00:52.111Z,73.20
2022-11-14T00:03:37.140Z,73.00
2022-11-14T00:06:22.538Z,73.50
2022-11-14T00:09:07.774Z,73.80
2022-11-14T00:11:53.887Z,74.30
2022-11-14T00:14:39.192Z,74.70
2022-11-14T00:17:24.721Z,75.60
2022-11-14T00:20:11.928Z,75.20
2022-11-14T00:22:57.589Z,76.00
2022-11-14T00:25:44.868Z,76.00
2022-11-14T00:28:30.758Z,76.10
2022-11-14T00:31:16.562Z,76.70
2022-11-14T00:34:01.652Z,76.80
2022-11-14T00:36:47.027Z,77.10
2022-11-14T00:39:32.361Z,77.80
2022-11-14T00:42:17.847Z,77.40
2022-11-14T00:45:03.754Z,77.30
2022-11-14T00:47:49.296Z,77.50
2022-11-14T00:50:34.528Z,77.90
2022-11-14T00:53:20.111Z,77.90
2022-11-14T00:56:05.901Z,78.00
2022-11-14T00:58:51.375Z,78.30
2022-11-14T01:01:36.911Z,78.60
2022-11-14T01:04:22.267Z,79.10
2022-11-14T01:07:07.544Z,79.50
2022-11-14T01:09:52.854Z,79.60
2022-11-14T01:12:38.186Z,79.90
2022-11-14T01:15:23.525Z,80.10
2022-11-14T01:18:11.667Z,80.10
2022-11-14T01:20:57.263Z,80.50
2022-11-14T01:23:42.634Z,80.80
2022-11-14T01:26:28.130Z,81.50
2022-11-14T01:29:13.628Z,81.70
2022-11-14T01:31:59.285Z,82.20
2022-11-14T01:34:44.503Z,82.50
2022-11-14T01:37:29.949Z,83.00
2022-11-14T01:40:15.792Z,83.30
2022-11-14T01:43:16.450Z,83.30
2022-11-14T01:46:31.163Z,83.70
2022-11-14T01:49:27.138Z,84.00
2022-11-14T01:52:17.087Z,84.50
2022-11-14T01:55:09.662Z,84.60
2022-11-14T01:57:56.783Z,84.80
2022-11-14T02:00:43.620Z,85.00
2022-11-14T02:03:29.455Z,84.90
2022-11-14T02:06:18.335Z,85.10
2022-11-14T02:09:07.005Z,85.80
2022-11-14T02:11:54.959Z,85.90
2022-11-14T02:14:41.939Z,85.80
2022-11-14T02:17:30.414Z,86.80
2022-11-14T02:20:21.317Z,87.30
2022-11-14T02:23:06.748Z,87.20
2022-11-14T02:25:51.994Z,87.40
2022-11-14T02:28:37.491Z,87.40
2022-11-14T02:31:22.755Z,87.40
2022-11-14T02:34:08.118Z,87.60
2022-11-14T02:36:53.849Z,88.00
2022-11-14T02:39:39.043Z,88.10
2022-11-14T02:42:24.264Z,88.10
2022-11-14T02:45:11.257Z,88.20
2022-11-14T02:47:56.501Z,88.10
2022-11-14T02:50:41.759Z,88.30
2022-11-14T02:53:27.037Z,88.40
2022-11-14T02:56:12.441Z,88.50
2022-11-14T02:58:57.800Z,88.70
2022-11-14T03:01:43.258Z,88.70
2022-11-14T03:04:28.646Z,88.70
2022-11-14T03:07:14.078Z,88.70
2022-11-14T03:09:59.388Z,88.80
2022-11-14T03:12:44.754Z,88.80
2022-11-14T03:15:30.292Z,88.90
2022-11-14T03:18:15.697Z,89.20
2022-11-14T03:21:09.229Z,89.30
2022-11-14T03:23:54.282Z,89.80
2022-11-14T03:26:39.557Z,90.10
2022-11-14T03:29:24.965Z,90.40
2022-11-14T03:32:11.387Z,90.70
2022-11-14T03:34:56.847Z,90.80
2022-11-14T03:37:42.247Z,90.80
2022-11-14T03:40:27.579Z,90.70
2022-11-14T03:43:12.823Z,91.10
2022-11-14T03:46:00.413Z,91.10
2022-11-14T03:48:45.844Z,91.40
2022-11-14T03:51:31.057Z,91.70
2022-11-14T03:54:16.536Z,91.90
2022-11-14T03:57:01.816Z,92.00
2022-11-14T03:59:47.230Z,92.10
2022-11-14T04:02:32.976Z,92.40
2022-11-14T04:05:18.317Z,92.50
2022-11-14T04:08:07.506Z,92.70
2022-11-14T04:10:52.832Z,92.80
2022-11-14T04:13:38.187Z,92.90
2022-11-14T04:16:23.699Z,93.00
2022-11-14T04:19:08.987Z,93.20
2022-11-14T04:21:54.284Z,93.60
2022-11-14T04:24:39.736Z,93.70
2022-11-14T04:27:24.979Z,93.70
2022-11-14T04:30:11.585Z,93.80
2022-11-14T04:32:56.878Z,94.00
2022-11-14T04:35:42.506Z,94.30
2022-11-14T04:38:28.141Z,94.10
2022-11-14T04:41:13.985Z,93.80
2022-11-14T04:43:59.393Z,94.00
2022-11-14T04:46:44.971Z,93.80
2022-11-14T04:49:30.092Z,94.00
2022-11-14T04:52:15.380Z,93.80
2022-11-14T04:55:00.648Z,94.00
2022-11-14T04:57:46.060Z,93.90
2022-11-14T05:00:31.535Z,94.00
2022-11-14T05:03:16.953Z,94.20
2022-11-14T05:06:03.227Z,94.40
2022-11-14T05:08:48.621Z,95.30
2022-11-14T05:11:33.788Z,95.80
2022-11-14T05:14:19.203Z,95.70
2022-11-14T05:17:04.434Z,95.70
2022-11-14T05:19:49.781Z,95.50
2022-11-14T05:22:35.167Z,95.50
2022-11-14T05:25:20.630Z,95.50
2022-11-14T05:28:05.891Z,95.40
2022-11-14T05:30:51.437Z,95.70
2022-11-14T05:33:36.955Z,95.90
2022-11-14T05:36:22.499Z,96.00
2022-11-14T05:39:07.881Z,96.00
2022-11-14T05:41:53.306Z,96.00
2022-11-14T05:44:38.674Z,96.40
2022-11-14T05:47:23.965Z,96.40
2022-11-14T05:50:10.070Z,96.60
2022-11-14T05:52:56.582Z,96.90
2022-11-14T05:55:41.655Z,97.00
2022-11-14T05:58:27.818Z,97.20
2022-11-14T06:01:18.827Z,97.20
2022-11-14T06:04:06.322Z,97.20
2022-11-14T06:06:51.787Z,97.30
2022-11-14T06:09:37.090Z,97.30
2022-11-14T06:12:22.363Z,97.70
2022-11-14T06:15:08.178Z,97.80
2022-11-14T06:17:54.404Z,97.90
2022-11-14T06:20:39.675Z,98.00
2022-11-14T06:23:25.253Z,98.50
2022-11-14T06:26:31.384Z,98.30
2022-11-14T06:29:16.479Z,98.40
2022-11-14T06:32:01.983Z,98.80
2022-11-14T06:34:47.286Z,98.70
2022-11-14T06:37:35.167Z,99.00
2022-11-14T06:40:20.439Z,99.10
2022-11-14T06:43:05.667Z,99.20
2022-11-14T06:45:54.030Z,99.20
2022-11-14T06:48:39.947Z,99.50
2022-11-14T06:51:25.049Z,99.40
2022-11-14T06:54:13.568Z,99.50
2022-11-14T06:56:58.778Z,99.90
2022-11-14T06:59:44.440Z,99.80
2022-11-14T07:02:29.627Z,99.90
2022-11-14T07:05:15.043Z,99.90
2022-11-14T07:08:00.507Z,99.90
2022-11-14T07:10:45.804Z,99.90
2022-11-14T07:13:31.475Z,99.90
2022-11-14T07:16:16.867Z,99.90
2022-11-14T07:19:04.065Z,99.90
2022-11-14T07:21:49.470Z,99.90
2022-11-14T07:24:35.104Z,99.90
2022-11-14T07:27:20.294Z,99.90
2022-11-14T07:30:06.471Z,99.90
2022-11-14T07:32:59.215Z,99.90
2022-11-14T07:35:44.677Z,99.90
2022-11-14T07:38:34.214Z,99.90
2022-11-14T07:41:19.654Z,99.90
2022-11-14T07:44:04.951Z,99.90
2022-11-14T07:46:51.848Z,99.90
2022-11-14T07:49:37.151Z,99.90
2022-11-14T07:52:22.393Z,99.90
2022-11-14T07:55:08.281Z,99.90
2022-11-14T07:57:54.788Z,99.90
2022-11-14T08:00:39.883Z,99.90
2022-11-14T08:03:25.217Z,99.90
2022-11-14T08:06:13.131Z,99.90
2022-11-14T08:08:58.304Z,99.90
2022-11-14T08:11:49.602Z,99.90
2022-11-14T08:14:34.975Z,99.90
2022-11-14T08:17:21.554Z,99.90
2022-11-14T08:20:08.766Z,99.90
2022-11-14T08:22:54.660Z,99.90
2022-11-14T08:25:40.567Z,99.90
2022-11-14T08:28:25.840Z,99.90
2022-11-14T08:31:11.328Z,99.90
2022-11-14T08:33:57.354Z,99.90
2022-11-14T08:36:42.557Z,99.90
2022-11-14T08:39:27.869Z,99.90
2022-11-14T08:42:13.450Z,99.90
2022-11-14T08:44:58.867Z,99.90
2022-11-14T08:47:51.745Z,99.90
2022-11-14T08:50:37.033Z,99.90
2022-11-14T08:53:22.559Z,99.90
2022-11-14T08:56:09.877Z,99.90
2022-11-14T08:58:55.040Z,99.90
2022-11-14T09:01:40.799Z,99.90
2022-11-14T09:04:26.360Z,99.90
2022-11-14T09:07:11.708Z,99.90
2022-11-14T09:09:56.992Z,99.90
2022-11-14T09:12:42.575Z,99.90
2022-11-14T09:15:28.387Z,99.90
2022-11-14T09:18:15.241Z,99.90
2022-11-14T09:21:01.956Z,99.90
2022-11-14T09:23:48.116Z,99.90
2022-11-14T09:26:33.454Z,99.90
2022-11-14T09:29:19.245Z,99.90
2022-11-14T09:32:04.654Z,99.90
2022-11-14T09:34:50.117Z,99.90
2022-11-14T09:37:35.573Z,99.90
2022-11-14T09:40:21.056Z,99.90
2022-11-14T09:43:30.773Z,99.90
2022-11-14T09:46:38.529Z,99.90
2022-11-14T09:49:37.610Z,99.90
2022-11-14T09:52:38.767Z,99.90
2022-11-14T09:55:33.743Z,99.90
2022-11-14T09:58:21.781Z,99.90
2022-11-14T10:01:15.670Z,99.90
2022-11-14T10:04:15.592Z,99.90
2022-11-14T10:07:37.160Z,99.90
2022-11-14T10:10:46.285Z,99.90
2022-11-14T10:13:40.280Z,99.90
2022-11-14T10:16:33.010Z,99.90
2022-11-14T10:19:30.802Z,99.90
2022-11-14T10:22:26.789Z,99.90
2022-11-14T10:25:23.948Z,99.90
2022-11-14T10:28:21.044Z,99.90
2022-11-14T10:31:37.366Z,99.90
2022-11-14T10:34:27.917Z,99.90
2022-11-14T10:37:40.326Z,99.90
2022-11-14T10:40:48.151Z,99.90
2022-11-14T10:43:49.928Z,99.90
2022-11-14T10:46:41.762Z,99.90
2022-11-14T10:49:33.267Z,99.90
2022-11-14T10:52:22.497Z,99.90
2022-11-14T10:55:15.021Z,99.90
2022-11-14T10:57:59.997Z,99.90
2022-11-14T11:00:45.501Z,99.90
2022-11-14T11:03:42.418Z,99.90
2022-11-14T11:06:29.271Z,99.90
2022-11-14T11:09:44.796Z,99.90
2022-11-14T11:12:36.692Z,99.90
2022-11-14T11:15:31.584Z,99.90
2022-11-14T11:18:32.440Z,99.90
2022-11-14T11:21:21.101Z,99.90
2022-11-14T11:24:06.630Z,99.90
2022-11-14T11:27:13.130Z,99.90
2022-11-14T11:30:18.577Z,99.90
2022-11-14T11:33:26.673Z,99.90
2022-11-14T11:36:21.945Z,99.90
2022-11-14T11:39:26.455Z,99.90
2022-11-14T11:42:20.107Z,99.90
2022-11-14T11:45:12.967Z,99.90
2022-11-14T11:48:08.575Z,99.90
2022-11-14T11:50:53.597Z,99.90
2022-11-14T11:53:47.428Z,99.90
2022-11-14T11:56:33.404Z,99.90
2022-11-14T11:59:35.059Z,99.90
2022-11-14T12:02:26.069Z,99.90
2022-11-14T12:05:24.051Z,99.90
2022-11-14T12:08:22.584Z,99.90
2022-11-14T12:11:16.580Z,99.90
2022-11-14T12:14:23.470Z,99.90
2022-11-14T12:17:30.851Z,99.90
2022-11-14T12:20:45.649Z,99.90
2022-11-14T12:23:49.586Z,99.90
2022-11-14T12:26:58.818Z,99.90
2022-11-14T12:29:58.753Z,99.90
2022-11-14T12:32:47.669Z,99.90
2022-11-14T12:35:35.481Z,99.90
2022-11-14T12:38:21.815Z,99.90
2022-11-14T12:41:08.334Z,99.90
2022-11-14T12:43:53.670Z,99.90
2022-11-14T12:47:07.114Z,99.90
2022-11-14T12:49:52.679Z,99.90
2022-11-14T12:52:41.194Z,99.90
2022-11-14T12:55:26.519Z,99.90
2022-11-14T12:58:35.394Z,99.90
2022-11-14T13:01:28.077Z,99.90
2022-11-14T13:04:22.793Z,99.90
2022-11-14T13:07:41.728Z,99.90
2022-11-14T13:10:32.528Z,99.90
2022-11-14T13:13:36.709Z,99.90
2022-11-14T13:16:48.816Z,99.90
2022-11-14T13:20:05.104Z,99.90
2022-11-14T13:22:50.483Z,99.90
2022-11-14T13:25:36.099Z,99.90
2022-11-14T13:28:40.475Z,99.90
2022-11-14T13:31:45.313Z,99.90
2022-11-14T13:34:59.506Z,99.90
2022-11-14T13:38:01.004Z,99.90
2022-11-14T13:41:14.151Z,99.90
2022-11-14T13:44:05.334Z,99.90
2022-11-14T13:47:08.007Z,99.90
2022-11-14T13:50:01.730Z,99.90
2022-11-14T13:52:49.033Z,99.90
2022-11-14T13:55:59.197Z,99.90
2022-11-14T13:58:45.633Z,99.90
2022-11-14T14:01:33.686Z,99.90
2022-11-14T14:04:59.057Z,99.90
2022-11-14T14:08:13.978Z,99.90
2022-11-14T14:11:42.691Z,99.90
2022-11-14T14:15:12.226Z,99.90
2022-11-14T14:18:22.439Z,99.90
2022-11-14T14:21:26.507Z,99.90
2022-11-14T14:24:42.009Z,99.90
2022-11-14T14:27:51.938Z,99.90
2022-11-14T14:30:37.262Z,99.90
2022-11-14T14:33:22.506Z,99.90
2022-11-14T14:36:17.318Z,99.90
2022-11-14T14:39:32.218Z,99.90
2022-11-14T14:42:18.358Z,99.90
2022-11-14T14:45:05.406Z,99.90
2022-11-14T14:47:59.662Z,99.90
2022-11-14T14:50:51.333Z,99.90
2022-11-14T14:53:36.708Z,99.90
2022-11-14T14:56:24.990Z,99.90
2022-11-14T14:59:23.255Z,99.90
2022-11-14T15:02:16.076Z,99.90
2022-11-14T15:05:02.679Z,99.90
2022-11-14T15:07:49.916Z,99.90
2022-11-14T15:10:35.639Z,99.90
2022-11-14T15:13:23.638Z,99.90
2022-11-14T15:16:09.983Z,99.90
2022-11-14T15:18:57.033Z,99.90
2022-11-14T15:21:43.186Z,99.90
2022-11-14T15:24:28.166Z,99.90
2022-11-14T15:27:15.093Z,99.90
2022-11-14T15:30:04.057Z,99.90
2022-11-14T15:32:54.263Z,99.90
2022-11-14T15:35:40.472Z,99.90
2022-11-14T15:41:34.455Z,99.90
2022-11-14T15:44:34.329Z,99.90
2022-11-14T15:47:24.329Z,99.90
2022-11-14T15:50:12.427Z,99.90
2022-11-14T15:53:03.808Z,99.90
2022-11-14T15:55:49.609Z,99.90
2022-11-14T15:58:34.662Z,99.90
2022-11-14T16:01:24.080Z,99.90
2022-11-14T16:04:16.449Z,99.90
2022-11-14T16:07:01.874Z,99.90
2022-11-14T16:09:47.485Z,99.90
2022-11-14T16:12:32.672Z,99.90
2022-11-14T16:15:19.151Z,99.90
2022-11-14T16:18:05.854Z,99.90
2022-11-14T16:20:51.752Z,99.90
2022-11-14T16:23:37.210Z,99.90
2022-11-14T16:26:22.582Z,99.90
2022-11-14T16:29:08.334Z,99.90
2022-11-14T16:31:55.177Z,99.90
2022-11-14T16:34:40.608Z,99.90
2022-11-14T16:37:26.118Z,99.90
2022-11-14T16:40:17.262Z,99.90
2022-11-14T16:43:03.292Z,99.90
2022-11-14T16:45:48.731Z,99.90
2022-11-14T16:48:35.182Z,99.90
2022-11-14T16:51:46.985Z,99.90
2022-11-14T16:54:26.687Z,99.90
2022-11-14T16:57:12.086Z,99.90
2022-11-14T16:59:58.389Z,99.90
2022-11-14T17:02:43.961Z,99.90
2022-11-14T17:05:29.135Z,99.90
2022-11-14T17:08:14.934Z,99.90
2022-11-14T17:11:00.245Z,99.90
2022-11-14T17:13:45.654Z,99.90
2022-11-14T17:16:30.925Z,99.90
2022-11-14T17:19:16.368Z,99.90
2022-11-14T17:22:01.752Z,99.90
2022-11-14T17:24:47.136Z,99.90
2022-11-14T17:27:32.608Z,99.90
2022-11-14T17:30:18.290Z,99.90
2022-11-14T17:33:03.267Z,99.90
2022-11-14T17:35:48.982Z,99.90
2022-11-14T17:38:35.795Z,99.90
2022-11-14T17:41:21.003Z,99.90
2022-11-14T17:44:06.596Z,99.90
2022-11-14T17:46:53.562Z,99.90
2022-11-14T17:49:38.650Z,99.90
2022-11-14T17:52:24.165Z,99.90
2022-11-14T17:55:09.549Z,99.90
2022-11-14T17:57:55.014Z,99.90
2022-11-14T18:00:40.594Z,99.90
2022-11-14T18:03:27.078Z,99.90
2022-11-14T18:06:15.658Z,99.90
2022-11-14T18:09:04.786Z,99.90
2022-11-14T18:11:49.919Z,99.90
2022-11-14T18:14:35.751Z,99.90
2022-11-14T18:17:20.852Z,99.90
2022-11-14T18:20:07.168Z,99.90
2022-11-14T18:22:52.461Z,99.90
2022-11-14T18:25:37.543Z,99.90
2022-11-14T18:28:23.101Z,99.90
2022-11-14T18:31:10.777Z,99.90
2022-11-14T18:33:56.875Z,99.90
2022-11-14T18:36:42.054Z,99.90
2022-11-14T18:39:28.919Z,99.90
2022-11-14T18:42:13.974Z,99.90
2022-11-14T18:44:59.232Z,99.90
2022-11-14T18:47:44.976Z,99.90
2022-11-14T18:50:31.449Z,99.90
2022-11-14T18:53:16.827Z,99.90
2022-11-14T18:56:06.748Z,99.90
2022-11-14T18:58:54.462Z,99.90
2022-11-14T19:01:39.878Z,99.90
2022-11-14T19:04:25.325Z,99.90
2022-11-14T19:07:10.798Z,99.90
2022-11-14T19:09:56.017Z,99.90
2022-11-14T19:12:42.613Z,99.90
2022-11-14T19:15:27.721Z,99.90
2022-11-14T19:18:13.091Z,99.90
2022-11-14T19:21:00.193Z,99.90
2022-11-14T19:23:45.566Z,99.90
2022-11-14T19:26:31.355Z,99.90
2022-11-14T19:29:17.175Z,99.90
2022-11-14T19:32:02.819Z,99.90
2022-11-14T19:34:54.830Z,99.90
2022-11-14T19:37:40.133Z,99.90
2022-11-14T19:40:26.179Z,99.90
2022-11-14T19:43:11.502Z,99.90
2022-11-14T19:46:03.917Z,99.90
2022-11-14T19:48:49.146Z,99.90
2022-11-14T19:51:35.030Z,99.90
2022-11-14T19:54:20.402Z,99.90
2022-11-14T19:57:06.046Z,99.90
2022-11-14T19:59:52.251Z,99.90
2022-11-14T20:02:40.390Z,99.90
2022-11-14T20:05:25.783Z,99.90
2022-11-14T20:08:11.574Z,99.90
2022-11-14T20:11:06.710Z,99.90
2022-11-14T20:13:51.906Z,99.90
2022-11-14T20:16:37.599Z,99.90
2022-11-14T20:19:23.130Z,99.90
2022-11-14T20:22:08.461Z,99.90
2022-11-14T20:24:53.995Z,99.90
2022-11-14T20:27:39.161Z,99.90
2022-11-14T20:30:25.010Z,99.90
2022-11-14T20:33:10.839Z,99.90
2022-11-14T20:36:00.853Z,99.90
2022-11-14T20:38:47.403Z,99.90
2022-11-14T20:41:33.490Z,99.90
2022-11-14T20:44:18.983Z,99.90
2022-11-14T20:47:07.206Z,99.90
2022-11-14T20:49:55.949Z,99.90
2022-11-14T20:52:41.588Z,99.90
2022-11-14T20:55:26.811Z,99.90
2022-11-14T20:58:12.160Z,99.90
2022-11-14T21:00:58.557Z,99.90
2022-11-14T21:03:44.128Z,99.90
2022-11-14T21:06:29.496Z,99.90
2022-11-14T21:09:14.995Z,99.90
2022-11-14T21:12:00.306Z,99.90
2022-11-14T21:14:45.806Z,99.90
2022-11-14T21:17:33.757Z,99.90
2022-11-14T21:20:18.915Z,99.90
2022-11-14T21:23:04.503Z,99.90
2022-11-14T21:25:49.803Z,99.90
2022-11-14T21:28:37.593Z,99.90
2022-11-14T21:31:31.836Z,99.90
2022-11-14T21:34:17.984Z,99.90
2022-11-14T21:37:03.269Z,99.90
2022-11-14T21:39:49.022Z,99.90
2022-11-14T21:42:34.490Z,99.90
2022-11-14T21:45:19.866Z,99.90
2022-11-14T21:48:05.450Z,99.90
2022-11-14T21:50:50.997Z,99.90
2022-11-14T21:53:37.280Z,99.90
2022-11-14T21:56:28.184Z,99.90
2022-11-14T21:59:16.718Z,99.90
2022-11-14T22:02:20.597Z,99.90
2022-11-14T22:05:06.632Z,99.90
2022-11-14T22:07:51.770Z,99.90
2022-11-14T22:10:36.882Z,99.90
2022-11-14T22:13:22.261Z,99.90
2022-11-14T22:16:09.164Z,99.90
2022-11-14T22:18:59.143Z,99.90
2022-11-14T22:21:47.539Z,99.90
2022-11-14T22:24:33.046Z,99.90
2022-11-14T22:27:18.283Z,99.90
2022-11-14T22:30:04.142Z,99.90
2022-11-14T22:32:49.554Z,99.90
2022-11-14T22:35:35.369Z,99.90
2022-11-14T22:38:20.420Z,99.90
2022-11-14T22:41:08.168Z,99.90
2022-11-14T22:43:54.255Z,99.90
2022-11-14T22:46:39.711Z,99.90
2022-11-14T22:49:24.911Z,99.90
2022-11-14T22:52:10.511Z,99.90
2022-11-14T22:54:55.921Z,99.90
2022-11-14T22:57:41.245Z,99.90
2022-11-14T23:00:26.685Z,99.90
2022-11-14T23:03:15.028Z,99.90
2022-11-14T23:06:09.590Z,99.90
2022-11-14T23:08:55.553Z,99.90
2022-11-14T23:11:40.956Z,99.90
2022-11-14T23:14:26.202Z,99.90
2022-11-14T23:17:11.645Z,99.90
2022-11-14T23:19:57.143Z,99.90
2022-11-14T23:22:42.586Z,99.90
2022-11-14T23:25:28.187Z,99.90
2022-11-14T23:28:13.657Z,99.90
2022-11-14T23:31:00.218Z,99.90
2022-11-14T23:33:46.509Z,99.90
2022-11-14T23:36:31.478Z,99.90
2022-11-14T23:39:17.119Z,99.90
2022-11-14T23:42:02.469Z,99.90
2022-11-14T23:44:47.938Z,99.90
2022-11-14T23:47:33.903Z,99.90
2022-11-14T23:50:18.922Z,99.90
2022-11-14T23:53:04.453Z,99.90
2022-11-14T23:55:58.509Z,99.90
2022-11-14T23:58:43.729Z,99.90
